Time;durP1;ratioP1;P1;durP2;ratioP2;P2;SDS_P1;SDS_P2;PMS_P1;PMS_P2;Temp;Humidity;BMP_temperature;BMP_pressure;BME280_temperature;BME280_humidity;BME280_pressure;Samples;Min_cycle;Max_cycle;Signal;HPM_P1;HPM_P2
2021/06/07 00:00:54;;;;;;;5.40;3.22;;;;;;;;;;5096654;28;20356;-68
2021/06/07 00:03:19;;;;;;;4.22;3.15;;;;;;;;;;5106240;28;20039;-68
2021/06/07 00:05:44;;;;;;;4.22;3.17;;;;;;;;;;5113723;28;20039;-67
2021/06/07 00:08:10;;;;;;;4.70;3.58;;;;;;;;;;5113547;28;20069;-68
2021/06/07 00:10:36;;;;;;;5.40;2.97;;;;;;;;;;5096306;28;20052;-68
2021/06/07 00:13:02;;;;;;;4.72;3.17;;;;;;;;;;5107107;28;20480;-68
2021/06/07 00:15:28;;;;;;;5.80;3.47;;;;;;;;;;5076177;28;20478;-67
2021/06/07 00:17:53;;;;;;;5.85;3.38;;;;;;;;;;5106438;28;20041;-68
2021/06/07 00:20:25;;;;;;;4.78;3.40;;;;;;;;;;5098289;28;20031;-68
2021/06/07 00:22:50;;;;;;;6.20;3.50;;;;;;;;;;5097227;28;20073;-68
2021/06/07 00:25:15;;;;;;;9.68;3.13;;;;;;;;;;5106367;28;20442;-68
2021/06/07 00:27:41;;;;;;;6.95;3.20;;;;;;;;;;5104320;28;20110;-69
2021/06/07 00:30:06;;;;;;;4.78;3.08;;;;;;;;;;5099148;28;20023;-68
2021/06/07 00:32:31;;;;;;;4.20;3.10;;;;;;;;;;5109933;28;20475;-68
2021/06/07 00:34:57;;;;;;;5.97;3.20;;;;;;;;;;5098474;28;20081;-68
2021/06/07 00:37:22;;;;;;;7.65;3.15;;;;;;;;;;5105256;28;20099;-69
2021/06/07 00:39:47;;;;;;;4.38;3.17;;;;;;;;;;5105444;28;20035;-68
2021/06/07 00:42:13;;;;;;;6.05;3.28;;;;;;;;;;5098004;28;20032;-68
2021/06/07 00:44:40;;;;;;;6.78;3.60;;;;;;;;;;5109896;28;20486;-68
2021/06/07 00:47:06;;;;;;;6.05;3.88;;;;;;;;;;5099461;28;20068;-68
2021/06/07 00:49:31;;;;;;;5.78;4.00;;;;;;;;;;5103774;28;20430;-68
2021/06/07 00:51:56;;;;;;;5.82;3.40;;;;;;;;;;5094252;28;20012;-68
2021/06/07 00:54:22;;;;;;;7.57;3.75;;;;;;;;;;5113594;28;20401;-68
2021/06/07 00:56:47;;;;;;;9.10;3.92;;;;;;;;;;5113186;28;20027;-68
2021/06/07 00:59:13;;;;;;;8.73;4.30;;;;;;;;;;5112944;28;20449;-67
2021/06/07 01:01:38;;;;;;;6.10;3.90;;;;;;;;;;5113345;28;20035;-68
2021/06/07 01:04:04;;;;;;;5.90;3.95;;;;;;;;;;5113225;28;20043;-68
2021/06/07 01:06:29;;;;;;;10.68;4.28;;;;;;;;;;5112554;28;20085;-68
2021/06/07 01:08:55;;;;;;;12.32;6.25;;;;;;;;;;5113348;28;20050;-68
2021/06/07 01:11:21;;;;;;;13.68;7.05;;;;;;;;;;5112617;28;20050;-68
2021/06/07 01:13:47;;;;;;;19.70;7.68;;;;;;;;;;5113351;28;20078;-69
2021/06/07 01:16:13;;;;;;;16.25;7.05;;;;;;;;;;5112866;28;20084;-68
2021/06/07 01:18:39;;;;;;;18.98;7.22;;;;;;;;;;5113173;28;20028;-68
2021/06/07 01:21:06;;;;;;;17.50;7.88;;;;;;;;;;5094854;28;20391;-69
2021/06/07 01:23:32;;;;;;;14.70;7.50;;;;;;;;;;5112503;28;20027;-68
2021/06/07 01:25:58;;;;;;;19.50;7.18;;;;;;;;;;5113116;28;20032;-68
2021/06/07 01:28:23;;;;;;;17.45;7.10;;;;;;;;;;5112308;28;20403;-68
2021/06/07 01:30:49;;;;;;;10.20;5.88;;;;;;;;;;5113230;28;20286;-68
2021/06/07 01:33:16;;;;;;;10.90;5.57;;;;;;;;;;5113179;28;20031;-68
2021/06/07 01:35:42;;;;;;;13.52;5.40;;;;;;;;;;5112442;28;20023;-68
2021/06/07 01:38:08;;;;;;;15.93;5.80;;;;;;;;;;5112696;28;20375;-69
2021/06/07 01:40:35;;;;;;;13.65;5.80;;;;;;;;;;5113278;28;20031;-68
2021/06/07 01:43:00;;;;;;;10.45;5.90;;;;;;;;;;5112394;28;20012;-68
2021/06/07 01:45:26;;;;;;;16.77;6.68;;;;;;;;;;5113221;28;20062;-68
2021/06/07 01:47:52;;;;;;;13.68;5.90;;;;;;;;;;5112381;28;20040;-68
2021/06/07 01:50:18;;;;;;;11.57;5.88;;;;;;;;;;5112417;28;20028;-68
2021/06/07 01:52:45;;;;;;;11.85;5.35;;;;;;;;;;5112828;28;20038;-68
2021/06/07 01:55:21;;;;;;;13.90;6.20;;;;;;;;;;5112906;28;20468;-68
2021/06/07 01:57:47;;;;;;;12.73;6.07;;;;;;;;;;5112250;28;20459;-68
2021/06/07 02:00:20;;;;;;;17.70;6.32;;;;;;;;;;5112174;28;20028;-67
2021/06/07 02:02:46;;;;;;;11.52;6.28;;;;;;;;;;5111993;28;20369;-68
2021/06/07 02:05:12;;;;;;;16.73;6.57;;;;;;;;;;5112641;28;20038;-68
2021/06/07 02:07:42;;;;;;;13.30;6.57;;;;;;;;;;5112524;28;20036;-68
2021/06/07 02:10:07;;;;;;;11.63;5.63;;;;;;;;;;5116674;28;20071;-69
2021/06/07 02:12:34;;;;;;;16.38;6.85;;;;;;;;;;5115728;28;20100;-68
2021/06/07 02:14:59;;;;;;;19.67;7.20;;;;;;;;;;5116280;28;20035;-68
2021/06/07 02:17:24;;;;;;;15.13;6.75;;;;;;;;;;5116241;28;20053;-67
2021/06/07 02:19:49;;;;;;;19.38;6.90;;;;;;;;;;5115897;28;20023;-67
2021/06/07 02:22:15;;;;;;;17.77;7.20;;;;;;;;;;5116232;28;20061;-67
2021/06/07 02:24:40;;;;;;;22.48;7.50;;;;;;;;;;5116094;28;20051;-68
2021/06/07 02:27:05;;;;;;;21.40;7.45;;;;;;;;;;5115890;28;20028;-68
2021/06/07 02:29:31;;;;;;;17.88;6.75;;;;;;;;;;5115991;28;20031;-68
2021/06/07 02:31:56;;;;;;;14.75;6.43;;;;;;;;;;5116023;28;20031;-67
2021/06/07 02:34:21;;;;;;;21.40;7.30;;;;;;;;;;5097350;28;20024;-67
2021/06/07 02:36:46;;;;;;;19.98;6.65;;;;;;;;;;5115569;28;20126;-68
2021/06/07 02:39:13;;;;;;;16.83;7.35;;;;;;;;;;5115905;28;20028;-68
2021/06/07 02:41:40;;;;;;;20.83;7.30;;;;;;;;;;5115577;28;20051;-68
2021/06/07 02:44:05;;;;;;;20.92;7.60;;;;;;;;;;5115936;28;20031;-67
2021/06/07 02:46:31;;;;;;;19.58;7.78;;;;;;;;;;5115547;28;20505;-68
2021/06/07 02:48:56;;;;;;;19.20;8.23;;;;;;;;;;5115160;28;20036;-68
2021/06/07 02:51:21;;;;;;;22.25;8.35;;;;;;;;;;5115880;28;20468;-68
2021/06/07 02:53:49;;;;;;;21.23;8.15;;;;;;;;;;5115191;28;20012;-68
2021/06/07 02:56:14;;;;;;;26.23;8.48;;;;;;;;;;5115598;28;20084;-68
2021/06/07 02:58:39;;;;;;;20.52;7.53;;;;;;;;;;5114640;28;20084;-68
2021/06/07 03:01:06;;;;;;;26.83;8.95;;;;;;;;;;5115275;28;20019;-68
2021/06/07 03:03:31;;;;;;;27.45;8.48;;;;;;;;;;5115284;28;20472;-68
2021/06/07 03:05:58;;;;;;;20.00;9.30;;;;;;;;;;5114880;28;20042;-68
2021/06/07 03:08:26;;;;;;;23.02;9.13;;;;;;;;;;5115435;28;20056;-68
2021/06/07 03:10:52;;;;;;;26.00;8.50;;;;;;;;;;5115022;28;20377;-69
2021/06/07 03:13:19;;;;;;;21.50;8.60;;;;;;;;;;5114964;28;20038;-68
2021/06/07 03:15:44;;;;;;;26.92;9.45;;;;;;;;;;5115079;28;20032;-68
2021/06/07 03:18:10;;;;;;;27.25;8.93;;;;;;;;;;5114538;28;20048;-68
2021/06/07 03:20:35;;;;;;;20.55;8.13;;;;;;;;;;5113842;28;20042;-68
2021/06/07 03:23:02;;;;;;;22.38;7.95;;;;;;;;;;5114831;28;20035;-69
2021/06/07 03:25:29;;;;;;;26.38;8.93;;;;;;;;;;5096480;28;20031;-68
2021/06/07 03:27:54;;;;;;;25.58;8.93;;;;;;;;;;5114567;28;20122;-68
2021/06/07 03:30:20;;;;;;;28.23;8.63;;;;;;;;;;5115212;28;20525;-68
2021/06/07 03:32:45;;;;;;;27.45;8.43;;;;;;;;;;5114449;28;20110;-68
2021/06/07 03:35:12;;;;;;;21.10;8.57;;;;;;;;;;5114792;28;20024;-68
2021/06/07 03:37:38;;;;;;;23.70;8.35;;;;;;;;;;5114190;28;20027;-67
2021/06/07 03:40:08;;;;;;;23.73;8.27;;;;;;;;;;5114318;28;20034;-68
2021/06/07 03:42:34;;;;;;;21.20;8.27;;;;;;;;;;5114528;28;20107;-68
2021/06/07 03:44:59;;;;;;;22.70;8.95;;;;;;;;;;5114365;28;20100;-68
2021/06/07 03:47:24;;;;;;;27.55;8.95;;;;;;;;;;5114454;28;20026;-67
2021/06/07 03:49:49;;;;;;;19.45;7.70;;;;;;;;;;5103634;28;20107;-68
2021/06/07 03:52:15;;;;;;;27.95;8.85;;;;;;;;;;5114258;28;20015;-68
2021/06/07 03:54:40;;;;;;;31.40;9.25;;;;;;;;;;5114421;28;20032;-68
2021/06/07 03:57:06;;;;;;;26.30;9.00;;;;;;;;;;5114692;28;20031;-68
2021/06/07 03:59:31;;;;;;;23.35;8.38;;;;;;;;;;5113866;28;20088;-68
2021/06/07 04:01:57;;;;;;;26.95;8.40;;;;;;;;;;5114028;28;20106;-67
2021/06/07 04:04:23;;;;;;;31.10;9.38;;;;;;;;;;5114206;28;20043;-69
2021/06/07 04:06:48;;;;;;;26.98;8.88;;;;;;;;;;5114392;28;20095;-69
2021/06/07 04:09:13;;;;;;;34.83;9.90;;;;;;;;;;5114106;28;20421;-67
2021/06/07 04:11:38;;;;;;;31.88;9.18;;;;;;;;;;5113774;28;20039;-68
2021/06/07 04:14:04;;;;;;;24.02;9.48;;;;;;;;;;5113692;28;20035;-68
2021/06/07 04:16:29;;;;;;;21.70;8.43;;;;;;;;;;5113829;28;20168;-68
2021/06/07 04:18:54;;;;;;;24.63;8.70;;;;;;;;;;5113453;28;20046;-68
2021/06/07 04:21:19;;;;;;;22.20;8.32;;;;;;;;;;5114130;28;20376;-68
2021/06/07 04:23:45;;;;;;;18.58;8.38;;;;;;;;;;5113719;28;20098;-68
2021/06/07 04:26:10;;;;;;;21.92;9.00;;;;;;;;;;5114137;28;20115;-69
2021/06/07 04:28:39;;;;;;;28.85;9.25;;;;;;;;;;5113240;28;20106;-68
2021/06/07 04:31:04;;;;;;;20.30;8.93;;;;;;;;;;5112942;28;20553;-68
2021/06/07 04:33:29;;;;;;;24.35;8.80;;;;;;;;;;5113945;28;20039;-68
2021/06/07 04:35:55;;;;;;;38.63;11.23;;;;;;;;;;5113199;28;20024;-68
2021/06/07 04:38:20;;;;;;;29.10;9.32;;;;;;;;;;5113379;28;20043;-68
2021/06/07 04:40:45;;;;;;;20.10;8.68;;;;;;;;;;5113465;28;20031;-68
2021/06/07 04:43:12;;;;;;;20.38;8.70;;;;;;;;;;5113065;28;20027;-68
2021/06/07 04:45:38;;;;;;;16.50;7.82;;;;;;;;;;5113814;28;20028;-68
2021/06/07 04:48:04;;;;;;;19.75;8.10;;;;;;;;;;5113472;28;20036;-68
2021/06/07 04:50:30;;;;;;;33.92;10.43;;;;;;;;;;5113649;28;20023;-69
2021/06/07 04:53:00;;;;;;;17.00;7.95;;;;;;;;;;5113251;28;20027;-68
2021/06/07 04:55:51;;;;;;;21.88;8.90;;;;;;;;;;5113483;28;20189;-68
2021/06/07 04:58:17;;;;;;;20.13;8.50;;;;;;;;;;5107935;28;20480;-68
2021/06/07 05:00:43;;;;;;;20.02;8.18;;;;;;;;;;5113137;28;20031;-68
2021/06/07 05:03:08;;;;;;;18.45;7.63;;;;;;;;;;5113042;28;20051;-68
2021/06/07 05:05:34;;;;;;;20.25;8.10;;;;;;;;;;5113650;28;20492;-68
2021/06/07 05:08:00;;;;;;;21.25;8.05;;;;;;;;;;5113187;28;20036;-68
2021/06/07 05:10:25;;;;;;;14.50;6.60;;;;;;;;;;5113325;28;20101;-68
2021/06/07 05:12:50;;;;;;;15.40;6.28;;;;;;;;;;5112605;28;20019;-68
2021/06/07 05:15:16;;;;;;;10.88;5.78;;;;;;;;;;5113435;28;20031;-68
2021/06/07 05:17:41;;;;;;;15.10;6.65;;;;;;;;;;5113201;28;20451;-68
2021/06/07 05:20:09;;;;;;;16.77;6.75;;;;;;;;;;5112704;28;20027;-68
2021/06/07 05:22:34;;;;;;;11.63;5.68;;;;;;;;;;5112713;28;20645;-68
2021/06/07 05:24:59;;;;;;;13.88;6.53;;;;;;;;;;5113351;28;20016;-68
2021/06/07 05:27:25;;;;;;;16.20;6.47;;;;;;;;;;5113340;28;20031;-68
2021/06/07 05:29:50;;;;;;;19.20;6.22;;;;;;;;;;5113188;28;20035;-68
2021/06/07 05:32:15;;;;;;;13.10;5.45;;;;;;;;;;5112837;28;20073;-68
2021/06/07 05:34:40;;;;;;;10.63;5.30;;;;;;;;;;5113147;28;20027;-68
2021/06/07 05:37:06;;;;;;;11.35;5.18;;;;;;;;;;5113141;28;20506;-68
2021/06/07 05:39:31;;;;;;;10.73;5.07;;;;;;;;;;5112940;28;20391;-67
2021/06/07 05:41:56;;;;;;;9.75;4.38;;;;;;;;;;5112937;28;20028;-68
2021/06/07 05:44:22;;;;;;;8.57;4.55;;;;;;;;;;5115259;28;20525;-68
2021/06/07 05:46:48;;;;;;;8.48;5.10;;;;;;;;;;5116847;28;20024;-68
2021/06/07 05:49:14;;;;;;;21.98;9.35;;;;;;;;;;5117110;28;20023;-68
2021/06/07 05:51:39;;;;;;;9.65;5.38;;;;;;;;;;5116495;28;20035;-68
2021/06/07 05:54:04;;;;;;;8.32;4.07;;;;;;;;;;5117306;28;20016;-68
2021/06/07 05:56:30;;;;;;;5.47;3.60;;;;;;;;;;5116770;28;20499;-69
2021/06/07 05:58:57;;;;;;;11.93;6.10;;;;;;;;;;5116325;28;20040;-69
2021/06/07 06:01:25;;;;;;;14.02;7.20;;;;;;;;;;5116563;28;20035;-69
2021/06/07 06:03:52;;;;;;;14.57;7.55;;;;;;;;;;5116444;28;20020;-69
2021/06/07 06:06:17;;;;;;;18.27;6.90;;;;;;;;;;5116585;28;20027;-69
2021/06/07 06:08:43;;;;;;;12.52;6.22;;;;;;;;;;5116401;28;20493;-69
2021/06/07 06:11:08;;;;;;;17.42;6.93;;;;;;;;;;5116195;28;20122;-69
2021/06/07 06:13:33;;;;;;;12.90;6.13;;;;;;;;;;5116045;28;20049;-69
2021/06/07 06:15:59;;;;;;;12.93;6.10;;;;;;;;;;5116018;28;20024;-69
2021/06/07 06:18:24;;;;;;;13.93;5.97;;;;;;;;;;5116157;28;20043;-70
2021/06/07 06:20:49;;;;;;;11.70;6.38;;;;;;;;;;5116059;28;20020;-66
2021/06/07 06:23:15;;;;;;;12.52;6.57;;;;;;;;;;5116139;28;20463;-68
2021/06/07 06:25:40;;;;;;;14.85;7.45;;;;;;;;;;5116014;28;20459;-66
2021/06/07 06:28:05;;;;;;;17.00;7.53;;;;;;;;;;5116472;28;20375;-67
2021/06/07 06:30:30;;;;;;;13.75;6.32;;;;;;;;;;5116258;28;20452;-68
2021/06/07 06:32:58;;;;;;;10.10;7.03;;;;;;;;;;5115701;28;20031;-68
2021/06/07 06:35:23;;;;;;;12.10;6.97;;;;;;;;;;5115889;28;20480;-68
2021/06/07 06:37:49;;;;;;;13.60;7.20;;;;;;;;;;5115864;28;20118;-68
2021/06/07 06:40:18;;;;;;;10.23;6.57;;;;;;;;;;5115928;28;20027;-68
2021/06/07 06:42:43;;;;;;;12.73;6.75;;;;;;;;;;5115736;28;20016;-68
2021/06/07 06:45:09;;;;;;;12.02;6.78;;;;;;;;;;5115776;28;20030;-68
2021/06/07 06:47:34;;;;;;;18.10;6.75;;;;;;;;;;5115596;28;20024;-68
2021/06/07 06:50:00;;;;;;;12.02;6.13;;;;;;;;;;5115583;28;20027;-68
2021/06/07 06:52:26;;;;;;;11.63;6.60;;;;;;;;;;5115463;28;20020;-67
2021/06/07 06:54:51;;;;;;;13.45;7.18;;;;;;;;;;5115043;28;20028;-68
2021/06/07 06:57:16;;;;;;;15.63;6.78;;;;;;;;;;5115324;28;20103;-68
2021/06/07 06:59:42;;;;;;;12.57;6.50;;;;;;;;;;5114793;28;20039;-68
2021/06/07 07:02:07;;;;;;;13.02;6.28;;;;;;;;;;5115369;28;20031;-67
2021/06/07 07:04:32;;;;;;;10.73;6.88;;;;;;;;;;5114763;28;20049;-68
2021/06/07 07:06:57;;;;;;;11.73;6.20;;;;;;;;;;5115127;28;20016;-68
2021/06/07 07:09:23;;;;;;;12.10;6.45;;;;;;;;;;5115183;28;20133;-68
2021/06/07 07:11:50;;;;;;;10.45;6.15;;;;;;;;;;5115254;28;20031;-68
2021/06/07 07:14:15;;;;;;;10.90;5.60;;;;;;;;;;5114703;28;20372;-68
2021/06/07 07:16:40;;;;;;;12.57;6.05;;;;;;;;;;5115031;28;20031;-68
2021/06/07 07:19:05;;;;;;;10.13;5.82;;;;;;;;;;5115307;28;20139;-68
2021/06/07 07:21:31;;;;;;;12.15;6.53;;;;;;;;;;5114886;28;20034;-69
2021/06/07 07:23:56;;;;;;;16.15;5.63;;;;;;;;;;5115051;28;20032;-69
2021/06/07 07:26:21;;;;;;;11.93;6.30;;;;;;;;;;5114876;28;20108;-69
2021/06/07 07:28:47;;;;;;;12.50;5.45;;;;;;;;;;5115067;28;20353;-68
2021/06/07 07:31:12;;;;;;;11.75;6.20;;;;;;;;;;5114563;28;20426;-69
2021/06/07 07:33:39;;;;;;;11.23;5.78;;;;;;;;;;5114976;28;20364;-69
2021/06/07 07:36:09;;;;;;;12.18;6.03;;;;;;;;;;5114825;28;20020;-68
2021/06/07 07:38:35;;;;;;;10.38;5.38;;;;;;;;;;5102273;28;20032;-68
2021/06/07 07:41:00;;;;;;;9.32;5.90;;;;;;;;;;5101084;28;20387;-68
2021/06/07 07:43:26;;;;;;;9.63;5.65;;;;;;;;;;5113556;28;20085;-68
2021/06/07 07:45:51;;;;;;;8.55;5.63;;;;;;;;;;5112721;28;20051;-69
2021/06/07 07:48:16;;;;;;;11.68;5.97;;;;;;;;;;5113777;28;20024;-69
2021/06/07 07:50:42;;;;;;;9.77;5.77;;;;;;;;;;5113510;28;20031;-69
2021/06/07 07:53:07;;;;;;;11.43;5.95;;;;;;;;;;5113709;28;20252;-68
2021/06/07 07:55:33;;;;;;;10.18;5.55;;;;;;;;;;5112408;28;20076;-69
2021/06/07 07:58:04;;;;;;;9.32;5.60;;;;;;;;;;5093509;28;20024;-69
2021/06/07 08:00:30;;;;;;;11.30;5.82;;;;;;;;;;5106059;28;20118;-69
2021/06/07 08:02:58;;;;;;;9.00;5.57;;;;;;;;;;5113558;28;20181;-67
2021/06/07 08:05:24;;;;;;;10.57;6.63;;;;;;;;;;5112291;28;20155;-67
2021/06/07 08:07:49;;;;;;;13.77;8.70;;;;;;;;;;5112938;28;20116;-69
2021/06/07 08:10:14;;;;;;;11.50;8.00;;;;;;;;;;5092011;28;20130;-68
2021/06/07 08:12:41;;;;;;;11.82;8.45;;;;;;;;;;5106178;28;20024;-68
2021/06/07 08:15:07;;;;;;;10.13;7.80;;;;;;;;;;5113268;28;20038;-68
2021/06/07 08:17:32;;;;;;;12.60;8.23;;;;;;;;;;5111895;28;20035;-68
2021/06/07 08:19:58;;;;;;;15.07;8.38;;;;;;;;;;5106594;28;20096;-69
2021/06/07 08:22:23;;;;;;;17.60;8.75;;;;;;;;;;5091062;28;20085;-69
2021/06/07 08:24:49;;;;;;;12.88;8.73;;;;;;;;;;5110456;28;20034;-69
2021/06/07 08:27:14;;;;;;;11.73;7.65;;;;;;;;;;5103182;28;20102;-68
2021/06/07 08:29:39;;;;;;;12.60;7.45;;;;;;;;;;5112854;28;20042;-68
2021/06/07 08:32:05;;;;;;;12.10;7.13;;;;;;;;;;5113575;28;20051;-69
2021/06/07 08:34:30;;;;;;;10.90;7.68;;;;;;;;;;5104479;28;20252;-69
2021/06/07 08:36:56;;;;;;;10.23;7.45;;;;;;;;;;5104896;28;20024;-69
2021/06/07 08:39:21;;;;;;;12.85;7.78;;;;;;;;;;5112335;28;20027;-68
2021/06/07 08:41:46;;;;;;;10.45;7.30;;;;;;;;;;5112614;28;20058;-69
2021/06/07 08:44:12;;;;;;;12.68;6.90;;;;;;;;;;5109352;28;20023;-68
2021/06/07 08:46:37;;;;;;;8.85;6.93;;;;;;;;;;5108485;28;20058;-69
2021/06/07 08:49:03;;;;;;;9.93;6.87;;;;;;;;;;5103762;28;20085;-69
2021/06/07 08:51:28;;;;;;;10.65;6.55;;;;;;;;;;5089396;28;20252;-68
2021/06/07 08:53:54;;;;;;;7.70;6.10;;;;;;;;;;5099443;28;20506;-69
2021/06/07 08:56:20;;;;;;;8.05;6.10;;;;;;;;;;5092981;28;20020;-69
2021/06/07 08:58:47;;;;;;;10.65;5.93;;;;;;;;;;5092524;28;20105;-69
2021/06/07 09:01:13;;;;;;;7.82;6.88;;;;;;;;;;5109430;28;20489;-69
2021/06/07 09:03:38;;;;;;;13.43;6.70;;;;;;;;;;5112901;28;20016;-69
2021/06/07 09:06:03;;;;;;;11.33;6.63;;;;;;;;;;5105061;28;20478;-69
2021/06/07 09:08:34;;;;;;;8.80;6.78;;;;;;;;;;5106219;28;20288;-69
2021/06/07 09:11:04;;;;;;;8.02;6.57;;;;;;;;;;5110235;28;20124;-70
2021/06/07 09:13:29;;;;;;;10.00;7.32;;;;;;;;;;5109957;28;20023;-69
2021/06/07 09:15:55;;;;;;;13.50;7.15;;;;;;;;;;5109657;28;20399;-70
2021/06/07 09:18:53;;;;;;;11.27;7.15;;;;;;;;;;5108334;28;20032;-70
2021/06/07 09:21:25;;;;;;;9.77;7.55;;;;;;;;;;5036460;28;20040;-68
2021/06/07 09:23:50;;;;;;;9.90;7.78;;;;;;;;;;5093306;28;20086;-68
2021/06/07 09:26:25;;;;;;;11.20;8.07;;;;;;;;;;5093620;28;20028;-68
2021/06/07 09:28:50;;;;;;;10.73;8.00;;;;;;;;;;5099479;28;20283;-67
2021/06/07 09:31:16;;;;;;;10.25;7.28;;;;;;;;;;5113305;28;20097;-68
2021/06/07 09:33:43;;;;;;;8.73;6.93;;;;;;;;;;5102797;28;20977;-68
2021/06/07 09:36:09;;;;;;;13.80;7.07;;;;;;;;;;5098611;28;20023;-69
2021/06/07 09:38:49;;;;;;;9.30;6.35;;;;;;;;;;5105123;28;20076;-68
2021/06/07 09:41:14;;;;;;;11.90;6.82;;;;;;;;;;5112548;28;20035;-69
2021/06/07 09:43:47;;;;;;;10.07;6.00;;;;;;;;;;5110655;28;20034;-69
2021/06/07 09:46:12;;;;;;;6.85;5.30;;;;;;;;;;5095434;28;20032;-68
2021/06/07 09:48:38;;;;;;;9.73;6.07;;;;;;;;;;5099853;28;20031;-69
2021/06/07 09:51:03;;;;;;;9.65;5.82;;;;;;;;;;5102679;28;20067;-70
2021/06/07 09:53:42;;;;;;;6.53;4.88;;;;;;;;;;5098714;28;20050;-70
2021/06/07 09:56:07;;;;;;;6.28;4.05;;;;;;;;;;5095983;28;20111;-70
2021/06/07 09:58:34;;;;;;;7.22;3.55;;;;;;;;;;5099305;28;20584;-67
2021/06/07 10:00:59;;;;;;;6.07;3.47;;;;;;;;;;5092042;28;20015;-70
2021/06/07 10:03:25;;;;;;;6.43;3.85;;;;;;;;;;5101519;28;20034;-70
2021/06/07 10:05:52;;;;;;;6.30;3.42;;;;;;;;;;5096275;28;20110;-71
2021/06/07 10:08:18;;;;;;;8.20;3.38;;;;;;;;;;5092078;28;20040;-70
2021/06/07 10:10:43;;;;;;;5.63;2.90;;;;;;;;;;5089249;28;20109;-71
2021/06/07 10:13:10;;;;;;;5.07;3.13;;;;;;;;;;5089919;28;20036;-70
2021/06/07 10:15:35;;;;;;;5.40;3.55;;;;;;;;;;5089580;28;20056;-70
2021/06/07 10:18:01;;;;;;;7.22;4.38;;;;;;;;;;5099344;28;20047;-69
2021/06/07 10:22:58;;;;;;;7.78;3.00;;;;;;;;;;5105787;28;20032;-71
2021/06/07 10:25:24;;;;;;;4.78;3.42;;;;;;;;;;5094513;28;20030;-70
2021/06/07 10:27:50;;;;;;;5.47;3.33;;;;;;;;;;5101199;28;20081;-69
2021/06/07 10:30:17;;;;;;;4.63;2.92;;;;;;;;;;5099779;28;20113;-66
2021/06/07 10:32:43;;;;;;;8.63;3.15;;;;;;;;;;5107582;28;20041;-68
2021/06/07 10:35:09;;;;;;;7.30;3.17;;;;;;;;;;5108162;28;20134;-67
2021/06/07 10:37:35;;;;;;;4.50;2.72;;;;;;;;;;5101730;28;20173;-68
2021/06/07 10:40:15;;;;;;;6.50;2.40;;;;;;;;;;5079991;28;20488;-67
2021/06/07 10:42:53;;;;;;;8.45;3.35;;;;;;;;;;5107354;28;20357;-70
2021/06/07 10:45:21;;;;;;;12.60;2.97;;;;;;;;;;5093716;28;20028;-70
2021/06/07 10:47:46;;;;;;;5.72;2.20;;;;;;;;;;5107527;28;20020;-71
2021/06/07 10:50:13;;;;;;;5.05;2.10;;;;;;;;;;5097991;28;20038;-69
2021/06/07 10:52:41;;;;;;;6.13;2.63;;;;;;;;;;5109448;28;20026;-70
2021/06/07 10:55:11;;;;;;;4.97;2.15;;;;;;;;;;5097681;28;20312;-68
2021/06/07 10:57:43;;;;;;;8.23;2.75;;;;;;;;;;5109553;28;20575;-69
2021/06/07 11:00:08;;;;;;;6.18;2.15;;;;;;;;;;5091627;28;20032;-69
2021/06/07 11:02:35;;;;;;;3.97;2.35;;;;;;;;;;5109052;28;20243;-69
2021/06/07 11:05:04;;;;;;;15.57;2.55;;;;;;;;;;5099649;28;20020;-69
2021/06/07 11:07:29;;;;;;;4.85;2.20;;;;;;;;;;5101026;28;20054;-69
2021/06/07 11:10:15;;;;;;;4.15;2.08;;;;;;;;;;5104403;28;20135;-69
2021/06/07 11:12:41;;;;;;;6.50;2.22;;;;;;;;;;5094701;28;20015;-69
2021/06/07 11:15:11;;;;;;;5.15;2.75;;;;;;;;;;5102924;28;20039;-67
2021/06/07 11:17:36;;;;;;;4.07;2.03;;;;;;;;;;5106843;28;20089;-69
2021/06/07 11:20:02;;;;;;;5.15;2.30;;;;;;;;;;5111567;28;20367;-70
2021/06/07 11:22:28;;;;;;;4.18;2.17;;;;;;;;;;5112333;28;20027;-69
2021/06/07 11:25:11;;;;;;;7.57;2.50;;;;;;;;;;5111298;28;20039;-69
2021/06/07 11:27:37;;;;;;;4.10;2.40;;;;;;;;;;5112704;28;20035;-69
2021/06/07 11:30:06;;;;;;;4.28;2.47;;;;;;;;;;5111336;28;20115;-70
2021/06/07 11:32:34;;;;;;;8.45;2.70;;;;;;;;;;5111999;28;20016;-69
2021/06/07 11:35:00;;;;;;;3.50;2.28;;;;;;;;;;5111551;28;20099;-69
2021/06/07 11:37:37;;;;;;;4.80;2.30;;;;;;;;;;5111680;28;20130;-69
2021/06/07 11:40:05;;;;;;;4.93;2.60;;;;;;;;;;5110882;28;20035;-70
2021/06/07 11:42:31;;;;;;;3.17;2.28;;;;;;;;;;5109272;28;20107;-69
2021/06/07 11:44:56;;;;;;;4.20;2.33;;;;;;;;;;5111123;28;20020;-69
2021/06/07 11:47:25;;;;;;;4.25;2.33;;;;;;;;;;5111002;28;20096;-70
2021/06/07 11:49:57;;;;;;;4.45;2.70;;;;;;;;;;5109601;28;20031;-69
2021/06/07 11:52:48;;;;;;;3.30;2.30;;;;;;;;;;5096527;28;20409;-70
2021/06/07 11:55:16;;;;;;;3.92;2.35;;;;;;;;;;5099729;28;20094;-69
2021/06/07 11:57:41;;;;;;;3.58;2.10;;;;;;;;;;5108764;28;20023;-69
2021/06/07 12:00:07;;;;;;;5.88;2.20;;;;;;;;;;5109361;28;20023;-69
2021/06/07 12:02:32;;;;;;;4.15;2.25;;;;;;;;;;5109971;28;20095;-68
2021/06/07 12:05:04;;;;;;;3.70;2.20;;;;;;;;;;5110940;28;20037;-70
2021/06/07 12:07:32;;;;;;;26.33;3.40;;;;;;;;;;5110860;28;20494;-70
2021/06/07 12:09:58;;;;;;;4.60;2.50;;;;;;;;;;5103289;28;20048;-69
2021/06/07 12:12:26;;;;;;;4.15;2.53;;;;;;;;;;5089684;28;20115;-68
2021/06/07 12:14:53;;;;;;;7.05;2.20;;;;;;;;;;5093141;28;20515;-69
2021/06/07 12:17:22;;;;;;;4.53;2.35;;;;;;;;;;5109632;28;20118;-70
2021/06/07 12:19:56;;;;;;;5.05;2.40;;;;;;;;;;5110361;28;20039;-70
2021/06/07 12:22:28;;;;;;;7.15;2.78;;;;;;;;;;5110571;28;20369;-69
2021/06/07 12:25:02;;;;;;;5.75;2.90;;;;;;;;;;5109616;28;20387;-70
2021/06/07 12:30:15;;;;;;;4.05;2.40;;;;;;;;;;5108596;28;20080;-70
2021/06/07 12:32:41;;;;;;;6.40;3.15;;;;;;;;;;5109871;28;20495;-68
2021/06/07 12:35:10;;;;;;;3.03;1.75;;;;;;;;;;5109415;28;20027;-69
2021/06/07 12:37:52;;;;;;;4.10;2.03;;;;;;;;;;5108782;28;20403;-70
2021/06/07 12:40:18;;;;;;;3.65;1.85;;;;;;;;;;5103743;28;20063;-69
2021/06/07 12:42:44;;;;;;;3.30;1.42;;;;;;;;;;5111002;28;20307;-69
2021/06/07 12:45:11;;;;;;;4.85;1.48;;;;;;;;;;5110097;28;20054;-69
2021/06/07 12:47:36;;;;;;;2.65;1.30;;;;;;;;;;5110085;28;20035;-70
2021/06/07 12:50:09;;;;;;;3.28;1.33;;;;;;;;;;5110026;28;20043;-70
2021/06/07 12:52:35;;;;;;;3.15;2.08;;;;;;;;;;5109477;28;20020;-69
2021/06/07 12:55:01;;;;;;;3.97;1.35;;;;;;;;;;5108366;28;20027;-68
2021/06/07 12:57:30;;;;;;;3.45;1.50;;;;;;;;;;5109042;28;20035;-69
2021/06/07 12:59:55;;;;;;;2.63;1.70;;;;;;;;;;5108211;28;20464;-67
2021/06/07 13:02:33;;;;;;;3.55;1.50;;;;;;;;;;5107074;28;20035;-69
2021/06/07 13:04:59;;;;;;;4.10;1.40;;;;;;;;;;5109762;28;20499;-70
2021/06/07 13:07:24;;;;;;;3.28;1.27;;;;;;;;;;5092854;28;20036;-68
2021/06/07 13:09:51;;;;;;;3.42;1.25;;;;;;;;;;5101772;28;20051;-69
2021/06/07 13:12:27;;;;;;;3.42;1.67;;;;;;;;;;5103754;28;20020;-68
2021/06/07 13:14:53;;;;;;;2.47;1.70;;;;;;;;;;5077724;28;20031;-69
2021/06/07 13:17:20;;;;;;;2.70;1.40;;;;;;;;;;5106194;28;20035;-69
2021/06/07 13:19:57;;;;;;;2.58;1.70;;;;;;;;;;5105335;28;20065;-68
2021/06/07 13:22:23;;;;;;;3.75;1.55;;;;;;;;;;5103372;28;20032;-69
2021/06/07 13:24:48;;;;;;;4.57;1.77;;;;;;;;;;5105772;28;20081;-68
2021/06/07 13:27:19;;;;;;;4.50;1.75;;;;;;;;;;5095829;28;20039;-68
2021/06/07 13:29:47;;;;;;;6.13;1.67;;;;;;;;;;5101472;28;20062;-70
2021/06/07 13:32:16;;;;;;;2.75;1.48;;;;;;;;;;5096620;28;20040;-68
2021/06/07 13:34:45;;;;;;;2.25;1.60;;;;;;;;;;5086195;28;20028;-67
2021/06/07 13:37:30;;;;;;;4.45;1.70;;;;;;;;;;5099041;28;20036;-69
2021/06/07 13:40:07;;;;;;;3.13;1.65;;;;;;;;;;5105386;28;20063;-69
2021/06/07 13:42:39;;;;;;;4.05;1.60;;;;;;;;;;5094185;28;20047;-68
2021/06/07 13:45:09;;;;;;;1.65;1.30;;;;;;;;;;5101050;28;20028;-68
2021/06/07 13:47:36;;;;;;;3.28;1.50;;;;;;;;;;5098362;28;20024;-69
2021/06/07 13:50:04;;;;;;;2.55;1.65;;;;;;;;;;5103886;28;20055;-68
2021/06/07 13:52:44;;;;;;;3.75;1.65;;;;;;;;;;5097141;28;20023;-69
2021/06/07 13:55:13;;;;;;;3.20;1.80;;;;;;;;;;5089585;28;20575;-69
2021/06/07 13:57:57;;;;;;;6.05;1.60;;;;;;;;;;5103817;28;20027;-68
2021/06/07 14:00:23;;;;;;;4.25;2.17;;;;;;;;;;5104174;28;20047;-67
2021/06/07 14:02:49;;;;;;;3.85;2.00;;;;;;;;;;5105557;28;20032;-68
2021/06/07 14:05:17;;;;;;;3.10;1.88;;;;;;;;;;5098485;28;20032;-69
2021/06/07 14:07:42;;;;;;;3.55;1.83;;;;;;;;;;5096251;28;20035;-69
2021/06/07 14:10:08;;;;;;;2.97;1.55;;;;;;;;;;5105554;28;20055;-69
2021/06/07 14:12:33;;;;;;;9.45;1.85;;;;;;;;;;5092566;28;20519;-69
2021/06/07 14:14:58;;;;;;;6.53;2.00;;;;;;;;;;5104737;28;20478;-67
2021/06/07 14:17:24;;;;;;;3.22;1.35;;;;;;;;;;5098445;28;20043;-69
2021/06/07 14:19:49;;;;;;;2.97;1.80;;;;;;;;;;5097603;28;20490;-69
2021/06/07 14:24:41;;;;;;;2.70;1.70;;;;;;;;;;5093076;28;20389;-70
2021/06/07 14:27:07;;;;;;;3.72;1.90;;;;;;;;;;5100005;28;20062;-70
2021/06/07 14:29:33;;;;;;;4.57;1.58;;;;;;;;;;5095187;28;20068;-69
2021/06/07 14:31:59;;;;;;;3.05;1.65;;;;;;;;;;5094202;28;20510;-69
2021/06/07 14:34:24;;;;;;;2.40;1.60;;;;;;;;;;5090997;28;20148;-69
2021/06/07 14:36:50;;;;;;;2.53;1.48;;;;;;;;;;5102737;28;20383;-69
2021/06/07 14:39:16;;;;;;;3.13;1.70;;;;;;;;;;5107203;28;20038;-68
2021/06/07 14:41:41;;;;;;;3.65;1.67;;;;;;;;;;5107378;28;20031;-68